createdAt,value
2023-04-20T04:36:16.435Z,22.95
2023-04-20T04:37:20.556Z,20.17
2023-04-20T04:38:34.668Z,19.80
2023-04-20T04:39:39.226Z,18.40
2023-04-20T04:40:52.518Z,17.08
2023-04-20T04:41:54.463Z,17.52
2023-04-20T04:43:07.784Z,19.45
2023-04-20T04:44:11.288Z,18.60
2023-04-20T04:45:18.889Z,19.42
2023-04-20T04:46:21.719Z,17.70
2023-04-20T04:47:23.804Z,23.00
2023-04-20T04:48:28.082Z,19.05
2023-04-20T04:49:31.083Z,19.73
2023-04-20T04:50:36.148Z,17.92
2023-04-20T04:51:39.090Z,16.95
2023-04-20T04:52:41.071Z,18.50
2023-04-20T04:53:45.246Z,14.70
2023-04-20T04:54:47.272Z,21.13
2023-04-20T04:55:50.237Z,17.98
2023-04-20T04:56:52.246Z,18.23
2023-04-20T04:57:54.132Z,18.52
2023-04-20T04:58:55.998Z,20.27
2023-04-20T04:59:57.865Z,17.33
2023-04-20T05:01:01.070Z,17.48
2023-04-20T05:02:03.174Z,15.10
2023-04-20T05:03:05.376Z,20.58
2023-04-20T05:04:07.438Z,18.23
2023-04-20T05:05:12.799Z,15.05
2023-04-20T05:06:16.076Z,20.15
2023-04-20T05:07:18.227Z,22.75
2023-04-20T05:08:21.530Z,17.70
2023-04-20T05:09:23.677Z,19.27
2023-04-20T05:10:30.017Z,14.40
2023-04-20T05:11:32.002Z,12.93
2023-04-20T05:12:34.673Z,16.13
2023-04-20T05:13:36.863Z,18.08
2023-04-20T05:14:38.776Z,18.67
2023-04-20T05:15:44.616Z,17.30
2023-04-20T05:16:46.398Z,17.48
2023-04-20T05:17:50.104Z,15.10
2023-04-20T05:18:52.157Z,16.25
2023-04-20T05:19:54.314Z,16.35
2023-04-20T05:20:56.584Z,16.77
2023-04-20T05:21:58.615Z,15.07
2023-04-20T05:23:00.582Z,24.35
2023-04-20T05:24:02.438Z,15.77
2023-04-20T05:25:06.317Z,19.35
2023-04-20T05:26:08.303Z,17.35
2023-04-20T05:27:11.439Z,16.73
2023-04-20T05:28:24.141Z,16.00
2023-04-20T05:29:26.359Z,14.75
2023-04-20T05:30:30.388Z,18.23
2023-04-20T05:31:33.388Z,19.10
2023-04-20T05:32:38.217Z,15.00
2023-04-20T05:33:40.380Z,14.00
2023-04-20T05:34:42.277Z,17.15
2023-04-20T05:35:44.092Z,18.23
2023-04-20T05:36:47.762Z,18.08
2023-04-20T05:37:49.719Z,15.80
2023-04-20T05:38:51.849Z,13.98
2023-04-20T05:39:54.237Z,18.08
2023-04-20T05:40:56.677Z,14.30
2023-04-20T05:41:58.500Z,15.77
2023-04-20T05:43:01.126Z,17.25
2023-04-20T05:44:03.365Z,17.40
2023-04-20T05:45:05.841Z,19.30
2023-04-20T05:46:09.696Z,16.15
2023-04-20T05:47:11.609Z,12.48
2023-04-20T05:48:13.377Z,15.35
2023-04-20T05:49:15.386Z,15.07
2023-04-20T05:50:17.756Z,14.48
2023-04-20T05:51:22.090Z,14.85
2023-04-20T05:52:23.889Z,13.85
2023-04-20T05:53:26.226Z,15.77
2023-04-20T05:54:28.542Z,17.20
2023-04-20T05:55:30.721Z,12.40
2023-04-20T05:56:32.618Z,24.70
2023-04-20T05:57:34.414Z,15.18
2023-04-20T05:58:37.597Z,16.77
2023-04-20T05:59:39.526Z,13.25
2023-04-20T06:00:41.545Z,14.15
2023-04-20T06:01:44.128Z,16.05
2023-04-20T06:02:46.205Z,14.35
2023-04-20T06:03:49.455Z,13.68
2023-04-20T06:04:51.628Z,13.02
2023-04-20T06:05:53.894Z,13.25
2023-04-20T06:06:55.690Z,15.52
2023-04-20T06:07:57.607Z,17.63
2023-04-20T06:08:59.496Z,14.45
2023-04-20T06:10:02.033Z,14.73
2023-04-20T06:11:10.023Z,17.58
2023-04-20T06:12:12.442Z,16.05
2023-04-20T06:13:14.482Z,13.38
2023-04-20T06:14:16.729Z,14.30
2023-04-20T06:15:20.274Z,21.13
2023-04-20T06:16:22.261Z,14.15
2023-04-20T06:17:24.160Z,13.13
2023-04-20T06:18:26.012Z,14.98
2023-04-20T06:19:27.803Z,12.73
2023-04-20T06:20:30.041Z,10.05
2023-04-20T06:21:34.469Z,14.38
2023-04-20T06:22:37.200Z,14.60
2023-04-20T06:23:39.169Z,12.25
2023-04-20T06:24:42.378Z,14.45
2023-04-20T06:25:45.620Z,11.05
2023-04-20T06:26:47.507Z,12.65
2023-04-20T06:27:51.356Z,17.63
2023-04-20T06:28:54.371Z,13.70
2023-04-20T06:29:56.397Z,12.63
2023-04-20T06:30:58.601Z,14.90
2023-04-20T06:32:00.516Z,10.38
2023-04-20T06:33:03.338Z,13.20
2023-04-20T06:34:05.129Z,14.98
2023-04-20T06:35:07.476Z,12.18
2023-04-20T06:36:09.433Z,12.02
2023-04-20T06:37:11.332Z,10.45
2023-04-20T06:38:13.495Z,16.35
2023-04-20T06:39:17.795Z,16.60
2023-04-20T06:40:19.815Z,15.25
2023-04-20T06:41:22.454Z,14.52
2023-04-20T06:42:24.318Z,13.25
2023-04-20T06:43:26.286Z,15.90
2023-04-20T06:44:28.151Z,11.88
2023-04-20T06:45:33.555Z,14.32
2023-04-20T06:46:36.152Z,17.98
2023-04-20T06:47:38.135Z,15.75
2023-04-20T06:48:39.996Z,12.85
2023-04-20T06:49:41.879Z,11.70
2023-04-20T06:50:49.260Z,14.98
2023-04-20T06:51:51.358Z,13.52
2023-04-20T06:52:53.527Z,12.43
2023-04-20T06:53:56.122Z,11.10
2023-04-20T06:55:00.757Z,16.65
2023-04-20T06:56:07.412Z,13.82
2023-04-20T06:57:09.226Z,11.57
2023-04-20T06:58:11.253Z,11.52
2023-04-20T06:59:16.233Z,12.32
2023-04-20T07:00:18.797Z,12.02
2023-04-20T07:01:21.358Z,11.77
2023-04-20T07:02:23.769Z,12.05
2023-04-20T07:03:27.071Z,13.73
2023-04-20T07:04:29.059Z,13.35
2023-04-20T07:05:31.189Z,11.63
2023-04-20T07:06:33.308Z,10.63
2023-04-20T07:07:35.296Z,10.73
2023-04-20T07:08:38.720Z,10.90
2023-04-20T07:09:40.556Z,10.85
2023-04-20T07:10:42.651Z,12.18
2023-04-20T07:11:44.458Z,10.82
2023-04-20T07:12:46.540Z,11.88
2023-04-20T07:13:48.594Z,11.70
2023-04-20T07:14:51.715Z,11.40
2023-04-20T07:15:58.467Z,14.60
2023-04-20T07:17:00.510Z,9.60
2023-04-20T07:18:02.442Z,11.32
2023-04-20T07:19:04.267Z,10.98
2023-04-20T07:20:08.511Z,13.25
2023-04-20T07:21:11.201Z,12.05
2023-04-20T07:22:13.037Z,10.27
2023-04-20T07:23:15.012Z,10.38
2023-04-20T07:24:16.899Z,11.88
2023-04-20T07:25:18.954Z,11.95
2023-04-20T07:26:21.170Z,13.13
2023-04-20T07:27:23.020Z,8.93
2023-04-20T07:28:24.998Z,10.63
2023-04-20T07:29:26.865Z,11.95
2023-04-20T07:30:28.789Z,9.43
2023-04-20T07:31:32.372Z,12.93
2023-04-20T07:32:35.526Z,10.18
2023-04-20T07:33:37.458Z,9.75
2023-04-20T07:34:39.236Z,13.85
2023-04-20T07:35:42.731Z,11.05
2023-04-20T07:36:45.581Z,8.95
2023-04-20T07:37:47.696Z,8.55
2023-04-20T07:38:50.075Z,11.85
2023-04-20T07:39:53.282Z,9.32
2023-04-20T07:40:56.274Z,10.05
2023-04-20T07:41:58.211Z,7.32
2023-04-20T07:42:59.938Z,7.32
2023-04-20T07:44:01.833Z,9.07
2023-04-20T07:45:05.098Z,10.65
2023-04-20T07:46:09.208Z,10.38
2023-04-20T07:47:11.019Z,9.90
2023-04-20T07:48:13.152Z,8.80
2023-04-20T07:49:15.304Z,10.50
2023-04-20T07:50:17.445Z,9.05
2023-04-20T07:51:21.763Z,11.18
2023-04-20T07:52:25.023Z,9.05
2023-04-20T07:53:27.802Z,8.70
2023-04-20T07:54:29.668Z,9.10
2023-04-20T07:55:31.659Z,7.35
2023-04-20T07:56:33.691Z,6.90
2023-04-20T07:57:36.063Z,10.80
2023-04-20T07:58:40.297Z,10.65
2023-04-20T07:59:42.230Z,6.70
2023-04-20T08:00:50.888Z,8.07
2023-04-20T08:01:54.555Z,9.40
2023-04-20T08:02:58.239Z,8.13
2023-04-20T08:04:00.268Z,14.20
2023-04-20T08:05:03.947Z,13.00
2023-04-20T08:06:09.256Z,9.35
2023-04-20T08:07:11.385Z,10.60
2023-04-20T08:08:13.269Z,8.48
2023-04-20T08:09:15.292Z,8.45
2023-04-20T08:10:17.501Z,8.73
2023-04-20T08:11:19.719Z,9.13
2023-04-20T08:12:21.709Z,10.20
2023-04-20T08:13:23.760Z,8.77
2023-04-20T08:14:25.798Z,8.60
2023-04-20T08:15:28.017Z,8.30
2023-04-20T08:16:32.009Z,8.93
2023-04-20T08:17:34.594Z,8.88
2023-04-20T08:18:36.444Z,9.57
2023-04-20T08:19:38.521Z,10.68
2023-04-20T08:20:40.925Z,9.00
2023-04-20T08:21:43.185Z,8.98
2023-04-20T08:22:45.746Z,10.20
2023-04-20T08:23:47.716Z,6.85
2023-04-20T08:24:49.586Z,13.32
2023-04-20T08:25:51.722Z,7.30
2023-04-20T08:26:53.645Z,7.30
2023-04-20T08:27:56.205Z,8.90
2023-04-20T08:28:58.708Z,7.72
2023-04-20T08:30:00.909Z,10.32
2023-04-20T08:31:03.247Z,11.68
2023-04-20T08:32:09.039Z,8.02
2023-04-20T08:33:11.615Z,8.23
2023-04-20T08:34:13.596Z,7.70
2023-04-20T08:35:16.002Z,8.77
2023-04-20T08:36:19.127Z,7.15
2023-04-20T08:37:21.413Z,5.43
2023-04-20T08:38:33.773Z,6.63
2023-04-20T08:39:36.568Z,9.02
2023-04-20T08:40:38.439Z,9.00
2023-04-20T08:41:40.997Z,7.35
2023-04-20T08:42:43.095Z,10.25
2023-04-20T08:43:45.566Z,9.40
2023-04-20T08:44:47.788Z,5.70
2023-04-20T08:45:53.125Z,9.88
2023-04-20T08:46:55.350Z,7.63
2023-04-20T08:48:06.050Z,6.82
2023-04-20T08:49:12.516Z,7.38
2023-04-20T08:50:15.819Z,7.25
2023-04-20T08:51:18.187Z,6.78
2023-04-20T08:52:19.961Z,8.30
2023-04-20T08:53:22.741Z,8.10
2023-04-20T08:54:24.925Z,8.13
2023-04-20T08:55:26.920Z,7.85
2023-04-20T08:56:37.775Z,8.07
2023-04-20T08:57:39.737Z,8.40
2023-04-20T08:58:42.416Z,7.95
2023-04-20T08:59:44.335Z,6.70
2023-04-20T09:00:47.970Z,8.82
2023-04-20T09:01:50.271Z,6.78
2023-04-20T09:02:55.877Z,8.38
2023-04-20T09:04:02.027Z,8.70
2023-04-20T09:05:05.321Z,7.80
2023-04-20T09:06:18.296Z,7.85
2023-04-20T09:07:21.526Z,8.77
2023-04-20T09:08:35.374Z,8.00
2023-04-20T09:09:37.236Z,9.23
2023-04-20T09:10:43.816Z,7.55
2023-04-20T09:11:46.717Z,9.13
2023-04-20T09:12:48.611Z,11.35
2023-04-20T09:14:10.657Z,8.38
2023-04-20T09:15:28.791Z,8.50
2023-04-20T09:16:31.495Z,13.57
2023-04-20T09:17:35.037Z,9.45
2023-04-20T09:18:38.396Z,9.00
2023-04-20T09:19:43.544Z,9.40
2023-04-20T09:20:45.905Z,8.43
2023-04-20T09:21:51.723Z,7.82
2023-04-20T09:22:54.420Z,8.02
2023-04-20T09:23:56.910Z,9.10
2023-04-20T09:24:59.409Z,9.52
2023-04-20T09:26:01.576Z,8.43
2023-04-20T09:27:18.383Z,6.65
2023-04-20T09:28:20.477Z,8.65
2023-04-20T09:29:24.155Z,10.07
2023-04-20T09:30:36.827Z,9.13
2023-04-20T09:31:39.811Z,10.05
2023-04-20T09:32:41.675Z,8.48
2023-04-20T09:33:43.516Z,11.10
2023-04-20T09:34:45.652Z,7.70
2023-04-20T09:35:48.039Z,12.10
2023-04-20T09:36:54.413Z,9.75
2023-04-20T09:37:56.486Z,9.48
2023-04-20T09:39:22.523Z,9.85
2023-04-20T09:40:27.692Z,8.00
2023-04-20T09:41:32.080Z,8.25
2023-04-20T09:42:36.344Z,9.80
2023-04-20T09:43:40.821Z,9.15
2023-04-20T09:44:43.345Z,11.35
2023-04-20T09:45:45.508Z,8.00
2023-04-20T09:46:47.830Z,10.10
2023-04-20T09:47:50.491Z,12.52
2023-04-20T09:48:53.050Z,10.63
2023-04-20T09:49:54.924Z,9.32
2023-04-20T09:50:57.607Z,11.95
2023-04-20T09:52:03.778Z,11.82
2023-04-20T09:53:08.601Z,8.93
2023-04-20T09:54:11.095Z,10.73
2023-04-20T09:55:13.073Z,8.77
2023-04-20T09:56:17.121Z,8.10
2023-04-20T09:57:21.610Z,8.07
2023-04-20T09:58:23.852Z,9.40
2023-04-20T09:59:26.442Z,11.52
2023-04-20T10:00:28.684Z,9.52
2023-04-20T10:01:33.606Z,12.98
2023-04-20T10:02:35.805Z,9.30
2023-04-20T10:03:37.825Z,10.50
2023-04-20T10:04:56.138Z,8.38
2023-04-20T10:05:58.378Z,10.48
2023-04-20T10:07:06.118Z,9.32
2023-04-20T10:08:08.190Z,12.90
2023-04-20T10:09:22.766Z,8.93
2023-04-20T10:10:24.588Z,12.25
2023-04-20T10:11:49.622Z,7.85
2023-04-20T10:12:56.851Z,9.95
2023-04-20T10:14:00.487Z,9.73
2023-04-20T10:15:02.779Z,10.35
2023-04-20T10:16:17.871Z,10.82
2023-04-20T10:17:33.162Z,10.15
2023-04-20T10:18:35.328Z,9.02
2023-04-20T10:19:37.507Z,10.38
2023-04-20T10:20:39.636Z,9.63
2023-04-20T10:21:49.020Z,8.43
2023-04-20T10:22:55.159Z,9.32
2023-04-20T10:23:58.943Z,8.63
2023-04-20T10:25:02.524Z,8.50
2023-04-20T10:26:04.603Z,9.07
2023-04-20T10:27:18.021Z,8.45
2023-04-20T10:28:20.022Z,9.18
2023-04-20T10:29:26.309Z,7.93
2023-04-20T10:30:29.406Z,8.63
2023-04-20T10:31:37.653Z,7.82
2023-04-20T10:32:39.612Z,7.72
2023-04-20T10:33:51.449Z,8.52
2023-04-20T10:35:05.197Z,9.65
2023-04-20T10:36:07.890Z,9.82
2023-04-20T10:37:11.248Z,8.00
2023-04-20T10:38:13.540Z,10.27
2023-04-20T10:39:22.536Z,9.50
2023-04-20T10:40:29.082Z,8.10
2023-04-20T10:41:31.556Z,10.77
2023-04-20T10:42:46.457Z,10.05
2023-04-20T10:43:48.415Z,11.63
2023-04-20T10:44:52.043Z,10.10
2023-04-20T10:45:54.159Z,10.63
2023-04-20T10:46:56.703Z,9.45
2023-04-20T10:47:58.843Z,9.68
2023-04-20T10:49:02.354Z,9.60
2023-04-20T10:50:09.457Z,8.70
2023-04-20T10:51:12.451Z,13.63
2023-04-20T10:52:15.319Z,10.20
2023-04-20T10:53:19.601Z,12.77
2023-04-20T10:54:21.755Z,10.38
2023-04-20T10:55:26.590Z,11.77
2023-04-20T10:56:46.391Z,8.98
2023-04-20T10:57:50.212Z,8.35
2023-04-20T10:58:52.321Z,8.95
2023-04-20T10:59:54.178Z,11.02
2023-04-20T11:01:06.773Z,10.75
2023-04-20T11:02:12.743Z,8.73
2023-04-20T11:03:15.664Z,9.82
2023-04-20T11:04:19.150Z,8.60
2023-04-20T11:05:23.313Z,12.95
2023-04-20T11:06:26.623Z,11.05
2023-04-20T11:07:29.076Z,9.95
2023-04-20T11:08:43.362Z,9.40
2023-04-20T11:09:45.676Z,8.93
2023-04-20T11:10:48.469Z,7.90
2023-04-20T11:12:04.583Z,9.68
2023-04-20T11:13:07.474Z,9.80
2023-04-20T11:14:10.480Z,14.07
2023-04-20T11:15:14.244Z,10.55
2023-04-20T11:16:18.972Z,8.73
2023-04-20T11:17:33.264Z,10.50
2023-04-20T11:18:38.079Z,10.25
2023-04-20T11:19:40.843Z,7.97
2023-04-20T11:20:52.726Z,14.07
2023-04-20T11:21:56.459Z,10.55
2023-04-20T11:22:59.857Z,12.05
2023-04-20T11:24:02.021Z,10.48
2023-04-20T11:25:09.365Z,10.88
2023-04-20T11:26:11.980Z,10.80
2023-04-20T11:27:22.320Z,10.02
2023-04-20T11:28:25.996Z,9.45
2023-04-20T11:29:39.473Z,9.32
2023-04-20T11:30:42.146Z,10.05
2023-04-20T11:31:51.894Z,9.57
2023-04-20T11:32:55.464Z,11.40
2023-04-20T11:33:57.644Z,12.20
2023-04-20T11:35:07.834Z,9.40
2023-04-20T11:36:45.593Z,9.35
2023-04-20T11:37:52.178Z,10.47
2023-04-20T11:38:54.572Z,13.80
2023-04-20T11:40:08.489Z,12.23
2023-04-20T11:41:10.811Z,11.25
2023-04-20T11:42:14.096Z,10.38
2023-04-20T11:43:18.172Z,8.45
2023-04-20T11:44:27.506Z,11.05
2023-04-20T11:45:33.867Z,10.88
2023-04-20T11:46:38.085Z,8.57
2023-04-20T11:47:41.226Z,10.93
2023-04-20T11:48:44.120Z,9.13
2023-04-20T11:49:46.183Z,12.32
2023-04-20T11:50:48.356Z,11.30
2023-04-20T11:51:51.501Z,10.98
2023-04-20T11:52:53.608Z,11.18
2023-04-20T11:53:55.564Z,10.57
2023-04-20T11:54:57.376Z,9.57
2023-04-20T11:55:59.183Z,13.60
2023-04-20T11:57:01.464Z,10.65
2023-04-20T11:58:08.777Z,17.35
2023-04-20T11:59:12.241Z,15.35
2023-04-20T12:00:20.805Z,16.60
2023-04-20T12:01:23.530Z,18.92
2023-04-20T12:02:26.478Z,17.83
2023-04-20T12:03:32.461Z,12.02
2023-04-20T12:04:35.017Z,14.93
2023-04-20T12:05:37.619Z,21.50
2023-04-20T12:06:40.467Z,14.48
2023-04-20T12:07:43.503Z,14.63
2023-04-20T12:08:49.173Z,11.38
2023-04-20T12:09:51.191Z,14.30
2023-04-20T12:10:53.001Z,17.00
2023-04-20T12:12:00.036Z,14.48
2023-04-20T12:13:01.955Z,11.52
2023-04-20T12:14:05.181Z,12.50
2023-04-20T12:15:07.885Z,12.32
2023-04-20T12:16:10.211Z,12.63
2023-04-20T12:17:20.324Z,10.45
2023-04-20T12:18:25.452Z,11.60
2023-04-20T12:19:28.049Z,17.23
2023-04-20T12:20:30.412Z,13.15
2023-04-20T12:21:33.061Z,10.77
2023-04-20T12:22:38.328Z,10.07
2023-04-20T12:23:41.201Z,10.52
2023-04-20T12:24:47.104Z,13.05
2023-04-20T12:25:49.924Z,10.40
2023-04-20T12:26:53.109Z,10.35
2023-04-20T12:27:55.765Z,9.55
2023-04-20T12:28:58.300Z,13.15
2023-04-20T12:30:00.735Z,15.15
2023-04-20T12:31:05.605Z,9.00
2023-04-20T12:32:12.566Z,10.27
2023-04-20T12:33:16.988Z,11.25
2023-04-20T12:34:19.291Z,14.00
2023-04-20T12:35:21.457Z,11.70
2023-04-20T12:36:25.561Z,15.75
2023-04-20T12:37:27.804Z,14.05
2023-04-20T12:38:29.648Z,9.85
2023-04-20T12:39:31.549Z,16.80
2023-04-20T12:40:33.791Z,9.93
2023-04-20T12:41:36.241Z,10.05
2023-04-20T12:42:38.045Z,12.77
2023-04-20T12:43:40.448Z,9.98
2023-04-20T12:44:42.305Z,13.60
2023-04-20T12:45:44.305Z,12.32
2023-04-20T12:46:46.275Z,10.98
2023-04-20T12:48:01.283Z,16.23
2023-04-20T12:49:03.725Z,10.13
2023-04-20T12:50:07.485Z,11.70
2023-04-20T12:51:09.408Z,11.68
2023-04-20T12:52:12.594Z,13.65
2023-04-20T12:53:14.676Z,9.60
2023-04-20T12:54:17.913Z,10.05
2023-04-20T12:55:20.019Z,9.93
2023-04-20T12:56:21.973Z,11.68
2023-04-20T12:57:24.002Z,10.32
2023-04-20T12:58:25.914Z,12.38
2023-04-20T12:59:27.675Z,12.35
2023-04-20T13:00:29.612Z,11.07
2023-04-20T13:01:34.214Z,11.63
2023-04-20T13:02:36.567Z,12.65
2023-04-20T13:03:38.770Z,13.77
2023-04-20T13:04:40.913Z,11.13
2023-04-20T13:05:44.535Z,9.98
2023-04-20T13:06:46.546Z,11.07
2023-04-20T13:07:48.494Z,10.95
2023-04-20T13:08:51.102Z,9.60
2023-04-20T13:09:52.957Z,9.80
2023-04-20T13:10:54.919Z,12.93
2023-04-20T13:11:57.939Z,9.40
2023-04-20T13:12:59.925Z,10.80
2023-04-20T13:14:01.688Z,11.18
2023-04-20T13:15:04.145Z,9.18
2023-04-20T13:16:06.355Z,10.68
2023-04-20T13:17:08.479Z,9.85
2023-04-20T13:18:11.151Z,10.02
2023-04-20T13:19:13.213Z,9.00
2023-04-20T13:20:15.080Z,14.40
2023-04-20T13:21:16.972Z,12.25
2023-04-20T13:22:19.885Z,10.82
2023-04-20T13:23:21.968Z,10.60
2023-04-20T13:24:23.938Z,7.97
2023-04-20T13:25:27.935Z,10.80
2023-04-20T13:26:29.790Z,10.82
2023-04-20T13:27:33.517Z,8.50
2023-04-20T13:28:35.481Z,15.70
2023-04-20T13:29:37.418Z,11.65
2023-04-20T13:30:39.304Z,12.02
2023-04-20T13:31:41.532Z,13.05
2023-04-20T13:32:43.699Z,16.05
2023-04-20T13:33:45.632Z,9.27
2023-04-20T13:34:47.485Z,8.68
2023-04-20T13:35:49.643Z,8.23
2023-04-20T13:36:54.076Z,9.48
2023-04-20T13:37:56.970Z,9.00
2023-04-20T13:38:59.014Z,12.88
2023-04-20T13:40:01.045Z,8.50
2023-04-20T13:41:03.212Z,10.52
2023-04-20T13:42:05.564Z,9.35
2023-04-20T13:43:07.392Z,9.05
2023-04-20T13:44:15.959Z,11.57
2023-04-20T13:45:17.999Z,8.65
2023-04-20T13:46:21.587Z,8.80
2023-04-20T13:47:24.246Z,10.50
2023-04-20T13:48:26.269Z,11.32
2023-04-20T13:49:29.416Z,11.82
2023-04-20T13:50:32.374Z,10.48
2023-04-20T13:51:34.224Z,9.00
2023-04-20T13:52:36.562Z,11.13
2023-04-20T13:53:38.787Z,14.10
2023-04-20T13:54:40.770Z,10.95
2023-04-20T13:55:43.170Z,14.88
2023-04-20T13:56:45.106Z,10.15
2023-04-20T13:57:48.188Z,10.88
2023-04-20T13:58:50.112Z,10.35
2023-04-20T13:59:53.195Z,9.68
2023-04-20T14:00:55.186Z,10.32
2023-04-20T14:02:01.971Z,8.85
2023-04-20T14:03:05.596Z,9.55
2023-04-20T14:04:09.739Z,11.10
2023-04-20T14:05:12.006Z,10.30
2023-04-20T14:06:13.857Z,9.65
2023-04-20T14:07:16.193Z,10.05
2023-04-20T14:08:18.072Z,13.68
2023-04-20T14:09:20.104Z,13.13
2023-04-20T14:10:22.089Z,9.10
2023-04-20T14:11:24.009Z,10.13
2023-04-20T14:12:28.987Z,10.20
2023-04-20T14:13:33.192Z,12.18
2023-04-20T14:14:35.047Z,11.20
2023-04-20T14:15:37.030Z,9.35
2023-04-20T14:16:47.620Z,9.90
2023-04-20T14:17:52.891Z,10.70
2023-04-20T14:18:56.051Z,15.93
2023-04-20T14:19:57.995Z,12.85
2023-04-20T14:21:00.525Z,14.48
2023-04-20T14:22:04.475Z,15.15
2023-04-20T14:23:09.315Z,11.10
2023-04-20T14:24:11.753Z,11.25
2023-04-20T14:25:13.806Z,10.63
2023-04-20T14:26:15.892Z,9.73
2023-04-20T14:28:13.465Z,12.27
2023-04-20T14:29:25.944Z,12.30
2023-04-20T14:30:28.386Z,13.27
2023-04-20T14:31:31.230Z,10.45
2023-04-20T14:32:50.678Z,10.35
2023-04-20T14:33:53.754Z,12.98
2023-04-20T14:34:55.726Z,11.43
2023-04-20T14:35:57.650Z,14.25
2023-04-20T14:36:59.973Z,10.80
2023-04-20T14:38:04.024Z,10.88
2023-04-20T14:39:07.206Z,10.82
2023-04-20T14:40:11.732Z,13.00
2023-04-20T14:41:29.299Z,13.65
2023-04-20T14:44:05.824Z,10.90
2023-04-20T14:45:13.566Z,11.82
2023-04-20T14:46:54.882Z,15.18
2023-04-20T14:48:40.104Z,13.32
2023-04-20T14:49:44.674Z,15.27
2023-04-20T14:50:59.464Z,12.75
2023-04-20T14:52:05.369Z,11.07
2023-04-20T14:53:07.565Z,10.63
2023-04-20T14:54:16.870Z,12.70
2023-04-20T14:55:30.229Z,11.80
2023-04-20T14:56:36.105Z,17.83
2023-04-20T14:58:15.428Z,10.73
2023-04-20T15:00:49.023Z,12.35
2023-04-20T15:02:01.830Z,11.52
2023-04-20T15:03:42.489Z,10.18
2023-04-20T15:05:27.540Z,11.43
2023-04-20T15:06:47.524Z,13.18
2023-04-20T15:08:34.834Z,12.50
2023-04-20T15:58:54.660Z,12.55
2023-04-20T16:02:05.421Z,13.52
2023-04-20T16:12:10.783Z,49.15
2023-04-20T17:09:35.545Z,15.30
2023-04-20T17:12:35.652Z,12.50
